METAR Data

Data at: 1129 UTC 21 Apr 2021

METAR for:KMLT (Millinocket Muni, ME, US)
Text:KMLT 211053Z AUTO 31005KT 7SM -RA OVC021 03/00 A2990 RMK AO2 RAB03 SLP132 P0003 T00280000
Temperature: 2.8°C ( 37°F)
Dewpoint: 0.0°C ( 32°F) [RH = 82%]
Pressure (altimeter):29.90 inches Hg (1012.6 mb) [Sea level pressure: 1013.2 mb]
Winds:from the NW (310 degrees) at 6 MPH (5 knots; 2.6 m/s)
Visibility: 7 sm ( 11 km)
Ceiling:2100 feet AGL
Clouds: overcast cloud deck at 2100 feet AGL
Weather:-RA (light rain)
QC Flag:automated observation with no human augmentation